Time;durP1;ratioP1;P1;durP2;ratioP2;P2;SDS_P1;SDS_P2;PMS_P1;PMS_P2;Temp;Humidity;BMP_temperature;BMP_pressure;BME280_temperature;BME280_humidity;BME280_pressure;Samples;Min_cycle;Max_cycle;Signal;HPM_P1;HPM_P2
2024/02/04 00:01:04;;;;;;;1.57;0.50;;;8.60;87.30;;;9.95;59.92;98710.59;5031424;28;20038;-69
2024/02/04 00:03:32;;;;;;;0.57;0.57;;;8.60;87.70;;;9.91;59.96;98714.50;5031223;28;20033;-68
2024/02/04 00:06:00;;;;;;;0.80;0.47;;;8.50;87.20;;;9.96;59.54;98701.63;5030675;28;20049;-69
2024/02/04 00:08:28;;;;;;;0.40;0.40;;;8.60;86.90;;;9.95;59.24;98703.47;5030872;28;20045;-68
2024/02/04 00:10:55;;;;;;;0.50;0.50;;;8.60;87.00;;;9.93;59.41;98688.63;5030996;28;20520;-68
2024/02/04 00:13:23;;;;;;;0.73;0.53;;;8.50;87.40;;;9.95;59.10;98681.34;5030789;28;20064;-68
2024/02/04 00:15:54;;;;;;;0.70;0.70;;;8.50;87.00;;;9.98;58.97;98671.28;5029340;28;20283;-68
2024/02/04 00:18:21;;;;;;;0.50;0.40;;;8.50;87.30;;;9.99;59.14;98667.63;5029879;28;20045;-69
2024/02/04 00:20:49;;;;;;;1.63;0.60;;;8.50;87.10;;;9.99;59.33;98662.31;5030823;28;20052;-69
2024/02/04 00:23:17;;;;;;;0.40;0.40;;;8.50;87.10;;;9.95;59.09;98654.75;5030946;28;20409;-69
2024/02/04 00:25:44;;;;;;;0.30;0.30;;;8.40;87.00;;;9.94;59.06;98669.00;5029230;28;20065;-68
2024/02/04 00:28:12;;;;;;;0.57;0.57;;;8.40;87.10;;;9.89;59.32;98679.19;5030722;28;20068;-69
2024/02/04 00:30:40;;;;;;;0.30;0.30;;;8.40;87.20;;;9.94;59.37;98675.16;5013143;28;20103;-68
2024/02/04 00:33:08;;;;;;;0.40;0.40;;;8.40;87.00;;;9.97;59.38;98660.78;5012734;28;20049;-68
2024/02/04 00:35:36;;;;;;;0.20;0.20;;;8.50;87.00;;;9.95;59.29;98652.09;5013474;28;20041;-69
2024/02/04 00:38:03;;;;;;;0.40;0.30;;;8.50;86.50;;;9.94;59.23;98656.53;5030599;28;20116;-69
2024/02/04 00:40:31;;;;;;;0.40;0.40;;;8.50;87.00;;;9.98;58.81;98663.31;5029542;28;20052;-68
2024/02/04 00:43:03;;;;;;;0.30;0.30;;;8.50;87.00;;;10.03;59.26;98662.91;5030507;28;20137;-68
2024/02/04 00:45:31;;;;;;;0.30;0.30;;;8.50;87.20;;;10.04;58.87;98660.13;5029143;28;20045;-68
2024/02/04 00:47:59;;;;;;;0.40;0.40;;;8.50;86.80;;;10.07;58.79;98666.13;5012796;28;20505;-68
2024/02/04 00:50:26;;;;;;;0.20;0.20;;;8.50;86.50;;;10.10;59.09;98679.16;5029836;28;20513;-68
2024/02/04 00:52:54;;;;;;;0.37;0.37;;;8.50;86.80;;;10.11;59.06;98683.53;5029377;28;20111;-68
2024/02/04 00:55:22;;;;;;;0.30;0.30;;;8.50;86.70;;;10.14;58.69;98673.47;5012232;28;20064;-68
2024/02/04 00:57:50;;;;;;;0.30;0.30;;;8.60;86.50;;;10.17;58.78;98683.81;5030555;28;20424;-68
2024/02/04 01:00:18;;;;;;;0.40;0.40;;;8.60;85.90;;;10.17;58.78;98673.19;5025642;28;20049;-68
2024/02/04 01:02:45;;;;;;;0.57;0.40;;;8.60;86.20;;;10.21;58.36;98673.75;5017143;28;20046;-68
2024/02/04 01:05:14;;;;;;;0.30;0.30;;;8.60;85.70;;;10.20;58.59;98674.75;5032672;28;20057;-69
2024/02/04 01:07:43;;;;;;;0.40;0.40;;;8.60;85.90;;;10.17;58.73;98675.84;5032807;28;20053;-68
2024/02/04 01:10:10;;;;;;;0.40;0.40;;;8.60;85.90;;;10.09;58.65;98673.00;5016385;28;20064;-68
2024/02/04 01:12:38;;;;;;;0.40;0.40;;;8.50;85.90;;;10.11;59.00;98667.56;5033494;28;20045;-68
2024/02/04 01:15:06;;;;;;;0.30;0.30;;;8.50;86.50;;;10.14;58.51;98665.47;5034081;28;20051;-68
2024/02/04 01:17:34;;;;;;;0.30;0.30;;;8.50;86.80;;;10.17;58.89;98669.69;5033053;28;20053;-69
2024/02/04 01:20:03;;;;;;;0.40;0.40;;;8.60;86.70;;;10.22;58.61;98670.97;5034546;28;20188;-68
2024/02/04 01:22:30;;;;;;;0.40;0.40;;;8.60;86.50;;;10.23;58.25;98659.31;5034814;28;20033;-68
2024/02/04 01:24:58;;;;;;;0.30;0.30;;;8.60;86.40;;;10.21;58.73;98666.59;5032355;28;20426;-69
2024/02/04 01:27:27;;;;;;;0.43;0.43;;;8.60;86.30;;;10.19;58.54;98681.03;5032828;28;20053;-69
2024/02/04 01:29:56;;;;;;;0.30;0.30;;;8.60;87.00;;;10.21;58.70;98679.91;5032524;28;20057;-69
2024/02/04 01:32:24;;;;;;;0.60;0.40;;;8.60;86.70;;;10.21;58.50;98663.09;5034721;28;20046;-68
2024/02/04 01:34:52;;;;;;;0.40;0.40;;;8.60;86.90;;;10.18;58.78;98658.91;5033499;28;20054;-69
2024/02/04 01:37:20;;;;;;;0.20;0.20;;;8.60;86.80;;;10.19;58.56;98649.94;5034229;28;20041;-69
2024/02/04 01:39:47;;;;;;;0.43;0.43;;;8.60;86.70;;;9.95;59.43;98660.06;5032748;28;20045;-69
2024/02/04 01:42:15;;;;;;;0.40;0.40;;;8.50;87.70;;;9.99;59.47;98653.50;5033066;28;20041;-69
2024/02/04 01:44:43;;;;;;;0.40;0.40;;;8.50;88.20;;;9.96;59.38;98659.06;5032745;28;20052;-69
2024/02/04 01:47:11;;;;;;;0.20;0.20;;;8.50;88.80;;;9.86;59.79;98657.19;5032333;28;20451;-69
2024/02/04 01:49:38;;;;;;;0.60;0.60;;;8.50;88.70;;;9.87;60.09;98647.44;5016338;28;20060;-69
2024/02/04 01:52:08;;;;;;;0.30;0.30;;;8.50;88.80;;;9.98;59.67;98659.78;5032404;28;20050;-69
2024/02/04 01:54:39;;;;;;;0.33;0.30;;;8.50;89.20;;;9.88;60.05;98664.22;5032150;28;20050;-69
2024/02/04 01:57:09;;;;;;;0.40;0.40;;;8.50;89.20;;;9.94;59.98;98661.88;5032247;28;20042;-69
2024/02/04 01:59:39;;;;;;;0.60;0.40;;;8.50;89.50;;;9.82;60.68;98660.28;5016533;28;20046;-69
2024/02/04 02:02:08;;;;;;;0.27;0.27;;;8.40;90.00;;;9.77;60.77;98657.16;5032136;28;20037;-70
2024/02/04 02:04:35;;;;;;;0.53;0.53;;;8.40;90.10;;;9.77;60.62;98652.69;5033407;28;20045;-69
2024/02/04 02:07:07;;;;;;;0.43;0.40;;;8.40;90.60;;;9.74;60.95;98663.59;5033615;28;20053;-70
2024/02/04 02:09:35;;;;;;;0.40;0.40;;;8.30;90.60;;;9.77;60.99;98675.75;5012494;28;20045;-69
2024/02/04 02:12:23;;;;;;;0.30;0.30;;;8.40;90.80;;;9.72;60.83;98676.16;5033259;28;20045;-69
2024/02/04 02:15:11;;;;;;;0.30;0.30;;;8.40;90.80;;;9.67;61.25;98667.72;5015826;28;20053;-69
2024/02/04 02:18:01;;;;;;;0.40;0.37;;;8.40;91.00;;;9.49;62.13;98666.66;5026139;28;20052;-70
2024/02/04 02:21:17;;;;;;;1.27;0.40;;;8.30;91.50;;;9.49;62.27;98661.31;5016396;28;20053;-69
2024/02/04 02:24:25;;;;;;;0.40;0.40;;;8.30;91.60;;;9.42;62.17;98655.66;5026260;28;20058;-69
2024/02/04 02:26:54;;;;;;;0.20;0.20;;;8.20;91.70;;;9.31;62.88;98659.25;5027549;28;20056;-69
2024/02/04 02:29:21;;;;;;;0.30;0.30;;;8.10;92.50;;;9.34;62.72;98656.31;5015727;28;20053;-69
2024/02/04 02:31:49;;;;;;;0.30;0.30;;;8.20;92.30;;;9.32;62.50;98662.75;5033134;28;20508;-69
2024/02/04 02:34:17;;;;;;;0.20;0.20;;;8.20;92.10;;;9.32;62.50;98658.25;5014929;28;20612;-69
2024/02/04 02:37:07;;;;;;;0.40;0.40;;;8.20;92.60;;;9.33;62.85;98657.31;5031770;28;20057;-69
2024/02/04 02:39:48;;;;;;;0.40;0.40;;;8.20;92.10;;;9.42;62.73;98655.66;5024936;28;20056;-69
2024/02/04 02:42:18;;;;;;;0.23;0.20;;;8.30;92.10;;;9.35;63.01;98646.53;5015595;28;20049;-69
2024/02/04 02:44:46;;;;;;;0.27;0.27;;;8.20;92.00;;;9.56;62.26;98647.38;5014688;28;20060;-69
2024/02/04 02:47:16;;;;;;;0.20;0.20;;;8.40;91.60;;;9.58;62.20;98642.78;5015247;28;20056;-69
2024/02/04 02:49:45;;;;;;;0.40;0.40;;;8.40;91.10;;;9.60;62.20;98646.16;5014902;28;20532;-69
2024/02/04 02:52:13;;;;;;;0.30;0.30;;;8.40;90.60;;;9.46;62.34;98647.31;5031216;28;20054;-69
2024/02/04 02:54:40;;;;;;;0.63;0.50;;;8.30;90.70;;;9.47;62.46;98642.84;5032364;28;20421;-69
2024/02/04 02:57:08;;;;;;;0.30;0.30;;;8.30;91.60;;;9.60;61.86;98646.16;5032758;28;20392;-69
2024/02/04 02:59:35;;;;;;;0.37;0.37;;;8.40;90.10;;;9.68;61.46;98640.19;5015207;28;20041;-69
2024/02/04 03:02:03;;;;;;;0.30;0.30;;;8.40;90.40;;;9.69;61.36;98636.53;5031287;28;20046;-69
2024/02/04 03:04:31;;;;;;;0.40;0.30;;;8.40;89.90;;;9.67;61.40;98627.84;5014889;28;20045;-69
2024/02/04 03:06:59;;;;;;;0.30;0.30;;;8.50;89.40;;;9.77;61.13;98641.19;5031245;28;20044;-69
2024/02/04 03:09:27;;;;;;;0.37;0.37;;;8.50;89.40;;;9.82;61.28;98639.00;5015337;28;20052;-69
2024/02/04 03:11:55;;;;;;;0.60;0.40;;;8.50;89.40;;;9.85;60.78;98633.41;5031143;28;20528;-69
2024/02/04 03:14:22;;;;;;;0.30;0.23;;;8.50;89.50;;;9.89;60.82;98634.84;5029851;28;20061;-69
2024/02/04 03:16:50;;;;;;;0.30;0.30;;;8.60;89.10;;;9.78;60.92;98632.25;5023095;28;20048;-69
2024/02/04 03:19:21;;;;;;;0.30;0.30;;;8.50;88.80;;;9.91;60.62;98638.22;5015012;28;20052;-69
2024/02/04 03:21:49;;;;;;;0.50;0.40;;;8.50;89.20;;;9.83;61.06;98632.72;5029871;28;20052;-69
2024/02/04 03:24:17;;;;;;;0.20;0.20;;;8.50;89.30;;;9.88;60.87;98630.47;5030603;28;20050;-69
2024/02/04 03:26:44;;;;;;;0.40;0.40;;;8.60;88.20;;;9.86;60.81;98625.28;5014083;28;20117;-68
2024/02/04 03:29:12;;;;;;;0.33;0.33;;;8.50;89.00;;;9.76;60.80;98631.53;5032001;28;20044;-68
2024/02/04 03:31:40;;;;;;;0.30;0.30;;;8.50;89.20;;;9.76;61.05;98644.84;5030971;28;20421;-69
2024/02/04 03:34:07;;;;;;;0.23;0.23;;;8.50;89.00;;;9.77;60.94;98633.22;5013386;28;20046;-69
2024/02/04 03:36:38;;;;;;;0.30;0.30;;;8.50;88.60;;;9.78;61.14;98635.75;5030446;28;20440;-68
2024/02/04 03:39:06;;;;;;;0.30;0.30;;;8.50;89.00;;;9.91;60.71;98619.59;5014024;28;20421;-68
2024/02/04 03:41:34;;;;;;;0.30;0.30;;;8.60;88.90;;;9.95;60.69;98634.31;5006761;28;20049;-68
2024/02/04 03:44:01;;;;;;;0.43;0.40;;;8.60;88.50;;;9.96;60.39;98609.38;5013478;28;20113;-69
2024/02/04 03:46:29;;;;;;;0.20;0.20;;;8.60;88.50;;;10.06;60.65;98617.38;5029635;28;20045;-68
2024/02/04 03:48:57;;;;;;;0.30;0.30;;;8.70;88.20;;;10.05;60.65;98603.25;5030037;28;20057;-68
2024/02/04 03:51:25;;;;;;;0.20;0.20;;;8.70;88.20;;;10.16;60.00;98604.16;4996605;28;20530;-69
2024/02/04 03:53:52;;;;;;;0.20;0.20;;;8.80;87.90;;;10.22;59.96;98609.75;5013962;28;20502;-69
2024/02/04 03:56:20;;;;;;;0.27;0.27;;;8.70;87.60;;;10.27;60.02;98625.31;5029536;28;20509;-69
2024/02/04 03:58:48;;;;;;;0.30;0.30;;;8.80;86.50;;;10.30;59.78;98613.56;5029850;28;20045;-69
2024/02/04 04:01:16;;;;;;;0.30;0.30;;;8.80;87.80;;;10.32;59.36;98625.78;5031409;28;20409;-69
2024/02/04 04:03:44;;;;;;;0.30;0.30;;;8.80;87.40;;;10.26;59.53;98618.31;5030409;28;20242;-69
2024/02/04 04:06:12;;;;;;;0.30;0.30;;;8.70;87.60;;;10.29;59.31;98626.00;5029584;28;20053;-69
2024/02/04 04:08:40;;;;;;;0.30;0.30;;;8.80;87.30;;;10.21;59.58;98620.53;5030075;28;20056;-69
2024/02/04 04:11:10;;;;;;;0.30;0.30;;;8.70;87.70;;;10.27;59.50;98621.81;5030151;28;20056;-69
2024/02/04 04:13:38;;;;;;;0.23;0.23;;;8.70;87.20;;;10.20;59.66;98627.69;5022580;28;20052;-69
2024/02/04 04:16:06;;;;;;;0.20;0.20;;;8.70;87.20;;;10.18;59.61;98631.47;5029458;28;20041;-69
2024/02/04 04:18:34;;;;;;;0.27;0.20;;;8.70;87.40;;;10.03;60.01;98638.97;5030846;28;20304;-69
2024/02/04 04:21:02;;;;;;;0.30;0.30;;;8.60;87.20;;;10.02;59.89;98643.44;5031151;28;20398;-69
2024/02/04 04:23:30;;;;;;;0.30;0.30;;;8.60;87.20;;;9.79;60.24;98640.09;5029867;28;20057;-70
2024/02/04 04:25:57;;;;;;;0.30;0.30;;;8.60;87.70;;;9.99;60.28;98633.06;5029281;28;20045;-69
2024/02/04 04:28:25;;;;;;;1.10;1.00;;;8.60;88.30;;;10.04;59.90;98625.53;5013402;28;20049;-69
2024/02/04 04:30:53;;;;;;;0.40;0.40;;;8.60;87.40;;;10.14;59.97;98625.56;5031050;28;20215;-69
2024/02/04 04:33:20;;;;;;;0.20;0.20;;;8.70;87.70;;;10.17;59.84;98625.28;5030641;28;20440;-69
2024/02/04 04:35:48;;;;;;;0.50;0.50;;;8.80;87.40;;;10.16;59.92;98631.59;5028962;28;20056;-69
2024/02/04 04:38:16;;;;;;;0.30;0.30;;;8.80;87.20;;;10.15;59.85;98639.69;5030698;28;20041;-69
2024/02/04 04:40:44;;;;;;;0.40;0.40;;;8.80;87.00;;;10.02;59.88;98643.44;5031335;28;20496;-69
2024/02/04 04:43:11;;;;;;;0.27;0.27;;;8.70;87.10;;;10.05;59.87;98648.47;5031319;28;20041;-69
2024/02/04 04:45:40;;;;;;;0.20;0.20;;;8.70;87.40;;;10.06;59.63;98654.63;5020962;28;20050;-69
2024/02/04 04:48:08;;;;;;;0.40;0.40;;;8.70;86.70;;;9.94;59.64;98640.59;5030804;28;20046;-69
2024/02/04 04:50:36;;;;;;;0.50;0.40;;;8.70;86.80;;;9.91;60.22;98648.84;5030664;28;20045;-69
2024/02/04 04:53:04;;;;;;;0.40;0.40;;;8.70;87.00;;;9.98;59.90;98650.00;5029454;28;20056;-69
2024/02/04 04:55:31;;;;;;;0.50;0.50;;;8.60;86.60;;;9.94;60.26;98645.06;5028921;28;20049;-69
2024/02/04 04:57:59;;;;;;;0.30;0.30;;;8.60;87.20;;;9.99;60.00;98643.69;5029291;28;20061;-69
2024/02/04 05:00:27;;;;;;;0.30;0.30;;;8.70;86.70;;;10.00;59.98;98640.06;5029298;28;20041;-69
2024/02/04 05:02:54;;;;;;;0.40;0.40;;;8.70;86.90;;;10.10;59.90;98637.47;5028889;28;20054;-69
2024/02/04 05:05:22;;;;;;;0.20;0.20;;;8.70;86.90;;;10.16;59.49;98630.75;5030080;28;20048;-69
2024/02/04 05:07:50;;;;;;;0.20;0.20;;;8.70;86.20;;;10.12;59.71;98624.00;5029108;28;20049;-69
2024/02/04 05:10:17;;;;;;;0.40;0.40;;;8.70;86.50;;;10.21;59.31;98617.88;5026806;28;20053;-69
2024/02/04 05:12:45;;;;;;;0.33;0.33;;;8.80;85.70;;;10.27;59.02;98635.13;5030478;28;20061;-69
2024/02/04 05:15:13;;;;;;;0.40;0.30;;;8.80;85.60;;;10.15;59.48;98637.88;5030329;28;20057;-69
2024/02/04 05:17:40;;;;;;;0.47;0.30;;;8.80;85.80;;;10.27;59.06;98641.28;5030774;28;20052;-69
2024/02/04 05:20:09;;;;;;;0.30;0.30;;;8.80;86.00;;;10.27;59.22;98643.09;5030310;28;20413;-69
2024/02/04 05:22:37;;;;;;;1.03;0.40;;;8.80;85.80;;;10.32;58.77;98649.75;5029048;28;20045;-69
2024/02/04 05:25:06;;;;;;;0.30;0.30;;;8.90;85.70;;;10.29;59.15;98647.31;5029784;28;20048;-69
2024/02/04 05:27:33;;;;;;;0.30;0.30;;;8.80;85.40;;;10.24;59.17;98641.56;5030341;28;20042;-69
2024/02/04 05:30:03;;;;;;;0.67;0.27;;;8.80;84.90;;;10.27;58.75;98637.78;5029269;28;20417;-69
2024/02/04 05:32:30;;;;;;;0.20;0.20;;;8.80;85.70;;;10.32;58.65;98635.59;5030228;28;20049;-69
2024/02/04 05:34:58;;;;;;;0.30;0.30;;;8.80;85.10;;;10.23;58.80;98631.88;5029750;28;20072;-69
2024/02/04 05:37:26;;;;;;;0.30;0.30;;;8.80;84.40;;;10.21;59.20;98632.00;5029995;28;20049;-69
2024/02/04 05:39:54;;;;;;;0.43;0.30;;;8.80;85.20;;;10.23;59.21;98626.56;5029963;28;20045;-69
2024/02/04 05:42:21;;;;;;;0.40;0.40;;;8.90;85.20;;;10.18;58.85;98629.63;5030118;28;20049;-68
2024/02/04 05:44:49;;;;;;;0.70;0.60;;;8.80;85.50;;;10.29;58.81;98641.97;5032002;28;20052;-69
2024/02/04 05:47:16;;;;;;;0.20;0.20;;;8.90;85.30;;;10.35;59.07;98640.63;5032172;28;20042;-69
2024/02/04 05:49:44;;;;;;;0.30;0.30;;;8.90;85.20;;;10.32;58.90;98646.25;5025590;28;20086;-69
2024/02/04 05:52:13;;;;;;;0.33;0.33;;;9.00;84.80;;;10.34;58.77;98637.13;5032896;28;20049;-69
2024/02/04 05:54:40;;;;;;;0.40;0.40;;;8.90;84.90;;;10.34;58.77;98638.97;5033311;28;20060;-69
2024/02/04 05:57:08;;;;;;;0.30;0.30;;;8.90;85.00;;;10.37;58.48;98646.66;5033587;28;20049;-69
2024/02/04 05:59:36;;;;;;;0.10;0.10;;;9.00;84.70;;;10.41;58.79;98640.09;5032434;28;20460;-69
2024/02/04 06:02:04;;;;;;;0.30;0.30;;;9.00;84.50;;;10.35;58.73;98641.50;5033623;28;20068;-68
2024/02/04 06:04:32;;;;;;;0.20;0.20;;;9.00;83.80;;;10.33;58.24;98640.78;5031525;28;20052;-69
2024/02/04 06:07:00;;;;;;;0.30;0.30;;;8.90;84.60;;;10.28;58.89;98636.81;5033424;28;20037;-69
2024/02/04 06:09:28;;;;;;;0.33;0.33;;;8.90;84.80;;;10.27;58.64;98651.09;5032035;28;20045;-69
2024/02/04 06:11:55;;;;;;;0.20;0.20;;;8.90;84.10;;;10.30;58.65;98651.69;5032187;28;20041;-69
2024/02/04 06:14:23;;;;;;;0.40;0.40;;;8.90;84.70;;;10.15;58.62;98651.19;5031831;28;20047;-69
2024/02/04 06:16:50;;;;;;;0.50;0.30;;;8.90;84.20;;;10.09;58.78;98654.38;5031874;28;20060;-70
2024/02/04 06:19:18;;;;;;;0.30;0.30;;;8.90;84.80;;;10.12;58.68;98647.94;5033266;28;20064;-69
2024/02/04 06:21:46;;;;;;;0.40;0.40;;;8.90;84.10;;;9.98;59.03;98647.34;5031687;28;20045;-69
2024/02/04 06:24:13;;;;;;;0.20;0.20;;;8.80;84.70;;;10.00;59.60;98634.75;5032834;28;20046;-69
2024/02/04 06:26:41;;;;;;;0.40;0.40;;;8.80;84.90;;;10.00;59.10;98639.22;5032657;28;20421;-69
2024/02/04 06:29:10;;;;;;;0.40;0.40;;;8.80;85.00;;;10.13;58.82;98639.00;5015444;28;20041;-69
2024/02/04 06:31:37;;;;;;;0.20;0.20;;;8.80;84.90;;;10.08;58.96;98654.50;5033032;28;20042;-70
2024/02/04 06:34:05;;;;;;;0.30;0.30;;;8.80;84.60;;;10.04;58.94;98640.63;5031707;28;20045;-69
2024/02/04 06:36:33;;;;;;;0.40;0.40;;;8.80;84.50;;;10.02;59.34;98630.16;5032632;28;20045;-69
2024/02/04 06:39:00;;;;;;;0.40;0.40;;;8.80;84.50;;;10.09;59.20;98632.25;5033337;28;20045;-69
2024/02/04 06:41:28;;;;;;;0.50;0.33;;;8.80;84.70;;;10.11;58.89;98646.28;5031675;28;20049;-69
2024/02/04 06:43:56;;;;;;;0.50;0.40;;;8.80;84.60;;;9.95;59.24;98647.59;5032591;28;20037;-70
2024/02/04 06:46:25;;;;;;;0.40;0.40;;;8.80;84.70;;;9.95;59.39;98652.91;5031351;28;20037;-69
2024/02/04 06:48:54;;;;;;;0.30;0.30;;;8.70;85.10;;;9.90;59.46;98641.81;5032809;28;20413;-69
2024/02/04 06:51:22;;;;;;;0.13;0.13;;;8.70;84.90;;;9.90;59.25;98647.16;5031508;28;20041;-69
2024/02/04 06:53:49;;;;;;;0.53;0.40;;;8.70;85.50;;;9.95;59.42;98647.59;5030901;28;20041;-69
2024/02/04 06:56:17;;;;;;;0.50;0.50;;;8.70;85.60;;;9.83;59.65;98643.34;5026237;28;20073;-69
2024/02/04 06:58:45;;;;;;;0.50;0.50;;;8.60;86.00;;;9.98;59.29;98643.81;5031616;28;20042;-66
2024/02/04 07:01:12;;;;;;;0.80;0.40;;;8.70;85.70;;;9.82;59.74;98637.16;5032532;28;20049;-66
2024/02/04 07:03:40;;;;;;;0.63;0.57;;;8.60;86.00;;;9.83;59.52;98630.88;5014133;28;20434;-66
2024/02/04 07:06:08;;;;;;;0.30;0.30;;;8.60;85.90;;;9.90;59.76;98625.88;5030723;28;20053;-67
2024/02/04 07:08:36;;;;;;;0.40;0.40;;;8.60;86.00;;;9.83;59.67;98622.91;5032320;28;20412;-68
2024/02/04 07:11:04;;;;;;;0.60;0.40;;;8.60;86.30;;;9.88;59.44;98634.97;5014684;28;20064;-68
2024/02/04 07:13:31;;;;;;;0.40;0.30;;;8.60;86.30;;;9.94;59.19;98624.63;5032103;28;20053;-67
2024/02/04 07:15:59;;;;;;;0.30;0.30;;;8.60;85.90;;;9.81;59.50;98638.16;5031104;28;20049;-67
2024/02/04 07:18:27;;;;;;;0.40;0.40;;;8.60;85.90;;;9.74;59.66;98615.72;5032406;28;20068;-67
2024/02/04 07:20:55;;;;;;;0.30;0.30;;;8.60;85.90;;;9.81;59.58;98618.72;5030694;28;20045;-67
2024/02/04 07:23:23;;;;;;;0.20;0.20;;;8.60;86.30;;;9.78;60.02;98606.50;5014691;28;20038;-65
2024/02/04 07:25:50;;;;;;;0.67;0.40;;;8.60;86.00;;;9.84;59.79;98600.63;5030382;28;20037;-65
2024/02/04 07:28:18;;;;;;;0.43;0.40;;;8.60;86.20;;;9.91;59.18;98605.44;5030949;28;20045;-65
2024/02/04 07:30:45;;;;;;;0.40;0.40;;;8.60;86.00;;;9.84;59.68;98615.75;5030703;28;20049;-64
2024/02/04 07:33:13;;;;;;;0.50;0.50;;;8.60;85.70;;;9.82;59.98;98623.03;5030812;28;20417;-66
2024/02/04 07:35:41;;;;;;;0.40;0.40;;;8.60;85.80;;;9.95;59.59;98622.81;5030878;28;20042;-65
2024/02/04 07:38:08;;;;;;;0.50;0.50;;;8.70;85.90;;;10.04;59.29;98614.88;5029301;28;20495;-66
2024/02/04 07:40:36;;;;;;;0.30;0.30;;;8.70;86.10;;;10.06;59.48;98614.72;5030733;28;20052;-65
2024/02/04 07:43:04;;;;;;;0.37;0.37;;;8.70;85.40;;;10.10;59.27;98621.50;5030605;28;20041;-66
2024/02/04 07:45:32;;;;;;;0.87;0.87;;;8.80;85.30;;;10.10;59.44;98618.84;5028898;28;20030;-65
2024/02/04 07:47:59;;;;;;;0.20;0.20;;;8.80;85.10;;;10.08;59.53;98617.25;5029525;28;20536;-65
2024/02/04 07:50:27;;;;;;;0.30;0.30;;;8.80;85.60;;;10.12;59.18;98616.00;5029724;28;20516;-65
2024/02/04 07:52:55;;;;;;;0.23;0.23;;;8.80;85.70;;;10.14;59.12;98608.72;5013029;28;20044;-65
2024/02/04 07:55:22;;;;;;;0.40;0.40;;;8.80;85.70;;;10.18;59.43;98611.00;5029083;28;20072;-66
2024/02/04 07:57:51;;;;;;;0.70;0.50;;;8.90;85.80;;;10.08;59.25;98618.13;5030349;28;20067;-66
2024/02/04 08:00:19;;;;;;;0.40;0.40;;;8.80;85.70;;;10.10;59.27;98612.66;5030336;28;20048;-65
2024/02/04 08:02:47;;;;;;;0.50;0.47;;;8.80;85.60;;;10.15;59.45;98605.09;5030309;28;20041;-65
2024/02/04 08:05:15;;;;;;;0.40;0.40;;;8.80;85.70;;;10.12;59.37;98608.03;5030197;28;20044;-66
2024/02/04 08:07:42;;;;;;;0.40;0.40;;;8.90;85.70;;;10.06;59.61;98606.75;5028280;28;20525;-66
2024/02/04 08:10:10;;;;;;;1.30;0.60;;;8.80;85.80;;;10.16;59.29;98617.44;5030307;28;20130;-66
2024/02/04 08:12:38;;;;;;;0.30;0.30;;;8.90;85.40;;;10.14;59.43;98620.25;5030190;28;20045;-66
2024/02/04 08:15:06;;;;;;;0.23;0.23;;;8.90;85.70;;;10.16;59.60;98628.09;5028533;28;20053;-65
2024/02/04 08:17:34;;;;;;;0.43;0.43;;;9.00;85.50;;;10.22;59.57;98638.19;5030051;28;20048;-65
2024/02/04 08:20:03;;;;;;;0.40;0.40;;;9.00;85.60;;;10.25;59.43;98632.59;5012903;28;20045;-65
2024/02/04 08:22:32;;;;;;;0.47;0.47;;;9.00;85.80;;;10.19;59.99;98622.50;5030114;28;20053;-66
2024/02/04 08:25:01;;;;;;;0.30;0.30;;;9.00;85.10;;;10.20;59.75;98630.34;5029918;28;20104;-65
2024/02/04 08:27:29;;;;;;;0.47;0.33;;;9.00;84.90;;;10.17;59.68;98627.09;5028919;28;20045;-66
2024/02/04 08:29:57;;;;;;;0.33;0.33;;;9.00;84.90;;;10.31;59.36;98628.56;5029444;28;20493;-66
2024/02/04 08:32:24;;;;;;;0.30;0.30;;;9.10;84.90;;;10.02;60.20;98631.94;5029089;28;20108;-66
2024/02/04 08:34:52;;;;;;;0.83;0.77;;;9.00;85.10;;;10.17;59.96;98633.25;5029519;28;20044;-66
2024/02/04 08:37:20;;;;;;;0.20;0.20;;;9.00;85.20;;;10.21;59.73;98644.47;5029567;28;20056;-65
2024/02/04 08:39:47;;;;;;;0.37;0.37;;;9.10;85.50;;;10.23;59.43;98640.69;5029799;28;20045;-66
2024/02/04 08:42:15;;;;;;;0.43;0.40;;;9.10;84.70;;;10.23;59.54;98638.03;5029599;28;20044;-65
2024/02/04 08:44:43;;;;;;;0.40;0.40;;;9.10;84.50;;;10.30;59.30;98648.16;5029362;28;20409;-66
2024/02/04 08:47:13;;;;;;;0.30;0.30;;;9.10;84.90;;;10.39;59.37;98640.25;5029690;28;20037;-66
2024/02/04 08:49:42;;;;;;;0.30;0.30;;;9.20;84.40;;;10.47;59.32;98639.56;5029743;28;20044;-66
2024/02/04 08:52:09;;;;;;;0.33;0.33;;;9.30;84.00;;;10.44;59.29;98630.00;5030141;28;20037;-66
2024/02/04 08:54:37;;;;;;;0.40;0.40;;;9.30;85.00;;;10.47;59.05;98618.28;5029160;28;20049;-66
2024/02/04 08:57:05;;;;;;;0.80;0.50;;;9.30;83.80;;;10.54;59.15;98623.88;5029596;28;20048;-66
2024/02/04 08:59:32;;;;;;;0.67;0.40;;;9.30;84.60;;;10.57;58.91;98643.09;5029883;28;20511;-66
2024/02/04 09:02:00;;;;;;;0.47;0.40;;;9.40;84.10;;;10.68;58.87;98641.28;5029499;28;20048;-66
2024/02/04 09:04:28;;;;;;;1.47;1.00;;;9.40;84.30;;;10.62;58.54;98637.34;5029394;28;20485;-67
2024/02/04 09:06:55;;;;;;;2.60;0.80;;;9.40;83.30;;;10.53;58.87;98630.19;5027733;28;20060;-66
2024/02/04 09:09:23;;;;;;;0.70;0.50;;;9.30;82.90;;;10.60;59.02;98629.50;5028149;28;20048;-67
2024/02/04 09:11:51;;;;;;;0.30;0.30;;;9.40;83.60;;;10.69;58.15;98624.34;5029590;28;20050;-66
2024/02/04 09:14:19;;;;;;;0.70;0.40;;;9.50;82.70;;;10.62;58.40;98634.69;5026596;28;20500;-67
2024/02/04 09:16:46;;;;;;;0.60;0.57;;;9.50;82.70;;;10.62;58.57;98637.34;5029260;28;20488;-66
2024/02/04 09:19:14;;;;;;;0.40;0.40;;;9.40;82.90;;;10.76;58.68;98636.97;5031053;28;20068;-68
2024/02/04 09:21:42;;;;;;;0.60;0.40;;;9.50;83.60;;;10.65;58.58;98639.75;5032072;28;20420;-68
2024/02/04 09:24:11;;;;;;;0.40;0.40;;;9.50;82.60;;;10.75;57.87;98635.25;5032459;28;20236;-68
2024/02/04 09:26:38;;;;;;;1.23;0.27;;;9.50;82.70;;;10.78;57.77;98660.81;5034341;28;20089;-68
2024/02/04 09:29:06;;;;;;;0.33;0.33;;;9.50;82.60;;;10.69;57.95;98646.47;5026361;28;20049;-68
2024/02/04 09:31:34;;;;;;;0.20;0.20;;;9.50;82.10;;;10.74;58.13;98638.91;5033156;28;20045;-68
2024/02/04 09:34:02;;;;;;;0.30;0.30;;;9.50;81.40;;;10.66;57.72;98656.56;5033614;28;20416;-63
2024/02/04 09:36:30;;;;;;;0.40;0.40;;;9.50;81.00;;;10.58;57.82;98667.88;5033426;28;20054;-63
2024/02/04 09:38:58;;;;;;;0.30;0.30;;;9.50;81.80;;;10.46;58.34;98656.50;5033894;28;20049;-63
2024/02/04 09:41:26;;;;;;;0.40;0.40;;;9.50;82.20;;;10.36;58.68;98671.63;5032891;28;20521;-66
2024/02/04 09:43:55;;;;;;;0.93;0.60;;;9.50;81.80;;;10.40;58.88;98665.88;5033842;28;20116;-66
2024/02/04 09:46:23;;;;;;;0.30;0.30;;;9.50;81.70;;;10.42;58.54;98655.09;5033904;28;20045;-67
2024/02/04 09:48:53;;;;;;;1.50;0.50;;;9.60;80.80;;;10.49;58.47;98684.66;5033836;28;20052;-67
2024/02/04 09:51:22;;;;;;;0.53;0.40;;;9.70;81.20;;;10.42;58.36;98660.41;5032940;28;20045;-67
2024/02/04 09:53:53;;;;;;;0.50;0.50;;;9.70;79.70;;;10.64;58.03;98651.34;5033686;28;20412;-67
2024/02/04 09:56:25;;;;;;;0.57;0.40;;;9.70;80.70;;;10.70;57.58;98626.00;5033706;28;20041;-66
2024/02/04 09:58:52;;;;;;;0.30;0.30;;;9.70;80.30;;;10.53;58.04;98625.69;5032879;28;20049;-66
2024/02/04 10:01:22;;;;;;;0.93;0.73;;;9.70;79.70;;;10.59;58.34;98611.84;5032498;28;20064;-65
2024/02/04 10:03:50;;;;;;;0.20;0.20;;;9.70;80.70;;;10.71;57.92;98607.22;5032365;28;20045;-66
2024/02/04 10:06:18;;;;;;;0.40;0.30;;;9.70;79.40;;;10.84;57.39;98580.31;5033212;28;20042;-65
2024/02/04 10:08:47;;;;;;;0.37;0.37;;;9.80;79.30;;;10.92;56.79;98587.63;5032432;28;20041;-65
2024/02/04 10:11:16;;;;;;;0.40;0.40;;;9.90;78.60;;;11.03;56.85;98580.31;5016625;28;20054;-66
2024/02/04 10:13:44;;;;;;;0.37;0.37;;;10.00;78.60;;;11.14;56.60;98581.16;5033753;28;20493;-66
2024/02/04 10:16:13;;;;;;;0.40;0.40;;;10.10;78.60;;;11.25;56.59;98578.34;5033346;28;20060;-67
2024/02/04 10:18:45;;;;;;;0.33;0.33;;;10.20;78.50;;;11.22;56.47;98581.28;5033583;28;20049;-67
2024/02/04 10:21:21;;;;;;;0.23;0.23;;;10.20;77.50;;;10.86;56.83;98596.16;5024166;28;20048;-66
2024/02/04 10:23:50;;;;;;;0.43;0.43;;;10.00;78.00;;;10.83;57.62;98590.13;5033349;28;20041;-67
2024/02/04 10:26:20;;;;;;;0.20;0.20;;;10.00;79.60;;;10.85;57.34;98582.00;5033388;28;20484;-67
2024/02/04 10:28:49;;;;;;;1.10;0.40;;;10.00;78.90;;;10.95;57.41;98592.66;5032266;28;20046;-67
2024/02/04 10:31:16;;;;;;;0.73;0.70;;;10.00;79.40;;;11.14;57.33;98618.47;5014829;28;20458;-66
2024/02/04 10:33:44;;;;;;;0.30;0.30;;;10.20;79.60;;;10.89;57.27;98620.69;5033347;28;20072;-66